sensor_id;sensor_type;location;lat;lon;timestamp;P1;durP1;ratioP1;P2;durP2;ratioP2
45103;SDS011;30865;51.288;4.572;2023-07-31T00:01:42;4.15;;;2.10;;
45103;SDS011;30865;51.288;4.572;2023-07-31T00:04:08;5.05;;;3.30;;
45103;SDS011;30865;51.288;4.572;2023-07-31T00:06:33;5.78;;;2.97;;
45103;SDS011;30865;51.288;4.572;2023-07-31T00:08:59;8.73;;;3.47;;
45103;SDS011;30865;51.288;4.572;2023-07-31T00:11:24;4.88;;;2.50;;
45103;SDS011;30865;51.288;4.572;2023-07-31T00:13:50;2.72;;;1.55;;
45103;SDS011;30865;51.288;4.572;2023-07-31T00:16:18;3.80;;;1.45;;
45103;SDS011;30865;51.288;4.572;2023-07-31T00:18:43;2.25;;;1.30;;
45103;SDS011;30865;51.288;4.572;2023-07-31T00:21:09;3.60;;;1.30;;
45103;SDS011;30865;51.288;4.572;2023-07-31T00:23:34;4.05;;;1.20;;
45103;SDS011;30865;51.288;4.572;2023-07-31T00:26:00;2.63;;;1.10;;
45103;SDS011;30865;51.288;4.572;2023-07-31T00:28:25;1.88;;;1.38;;
45103;SDS011;30865;51.288;4.572;2023-07-31T00:30:52;4.28;;;1.42;;
45103;SDS011;30865;51.288;4.572;2023-07-31T00:33:17;5.80;;;1.38;;
45103;SDS011;30865;51.288;4.572;2023-07-31T00:35:43;3.28;;;1.50;;
45103;SDS011;30865;51.288;4.572;2023-07-31T00:38:08;4.88;;;1.75;;
45103;SDS011;30865;51.288;4.572;2023-07-31T00:40:35;4.40;;;2.50;;
45103;SDS011;30865;51.288;4.572;2023-07-31T00:43:01;8.48;;;2.70;;
45103;SDS011;30865;51.288;4.572;2023-07-31T00:45:28;5.65;;;2.00;;
45103;SDS011;30865;51.288;4.572;2023-07-31T00:47:54;4.43;;;2.55;;
45103;SDS011;30865;51.288;4.572;2023-07-31T00:50:19;4.47;;;2.13;;
45103;SDS011;30865;51.288;4.572;2023-07-31T00:52:45;6.05;;;2.90;;
45103;SDS011;30865;51.288;4.572;2023-07-31T00:55:10;6.90;;;3.22;;
45103;SDS011;30865;51.288;4.572;2023-07-31T00:57:36;4.43;;;2.53;;
45103;SDS011;30865;51.288;4.572;2023-07-31T01:00:03;6.45;;;2.53;;
45103;SDS011;30865;51.288;4.572;2023-07-31T01:02:29;4.63;;;2.25;;
45103;SDS011;30865;51.288;4.572;2023-07-31T01:04:55;4.15;;;2.13;;
45103;SDS011;30865;51.288;4.572;2023-07-31T01:07:29;3.50;;;2.00;;
45103;SDS011;30865;51.288;4.572;2023-07-31T01:10:03;6.03;;;2.22;;
45103;SDS011;30865;51.288;4.572;2023-07-31T01:12:34;2.05;;;1.50;;
45103;SDS011;30865;51.288;4.572;2023-07-31T01:15:02;2.15;;;1.40;;
45103;SDS011;30865;51.288;4.572;2023-07-31T01:17:28;2.65;;;1.45;;
45103;SDS011;30865;51.288;4.572;2023-07-31T01:19:54;2.72;;;1.60;;
45103;SDS011;30865;51.288;4.572;2023-07-31T01:22:27;7.78;;;2.08;;
45103;SDS011;30865;51.288;4.572;2023-07-31T01:27:59;4.00;;;1.83;;
45103;SDS011;30865;51.288;4.572;2023-07-31T01:30:34;2.60;;;1.92;;
45103;SDS011;30865;51.288;4.572;2023-07-31T01:33:04;2.28;;;1.65;;
45103;SDS011;30865;51.288;4.572;2023-07-31T01:35:35;3.65;;;2.10;;
45103;SDS011;30865;51.288;4.572;2023-07-31T01:38:02;3.55;;;1.88;;
45103;SDS011;30865;51.288;4.572;2023-07-31T01:40:27;3.13;;;1.73;;
45103;SDS011;30865;51.288;4.572;2023-07-31T01:42:53;4.40;;;1.67;;
45103;SDS011;30865;51.288;4.572;2023-07-31T01:45:19;3.75;;;1.92;;
45103;SDS011;30865;51.288;4.572;2023-07-31T01:47:44;3.55;;;1.98;;
45103;SDS011;30865;51.288;4.572;2023-07-31T01:50:10;2.53;;;1.58;;
45103;SDS011;30865;51.288;4.572;2023-07-31T01:52:36;2.58;;;1.90;;
45103;SDS011;30865;51.288;4.572;2023-07-31T01:55:01;5.50;;;1.50;;
45103;SDS011;30865;51.288;4.572;2023-07-31T01:57:27;4.20;;;1.77;;
45103;SDS011;30865;51.288;4.572;2023-07-31T01:59:52;3.03;;;1.40;;
45103;SDS011;30865;51.288;4.572;2023-07-31T02:02:18;1.95;;;1.50;;
45103;SDS011;30865;51.288;4.572;2023-07-31T02:04:44;2.38;;;1.63;;
45103;SDS011;30865;51.288;4.572;2023-07-31T02:07:10;2.65;;;1.45;;
45103;SDS011;30865;51.288;4.572;2023-07-31T02:09:36;2.83;;;2.05;;
45103;SDS011;30865;51.288;4.572;2023-07-31T02:12:01;4.65;;;2.53;;
45103;SDS011;30865;51.288;4.572;2023-07-31T02:14:27;3.45;;;2.00;;
45103;SDS011;30865;51.288;4.572;2023-07-31T02:16:52;3.53;;;1.90;;
45103;SDS011;30865;51.288;4.572;2023-07-31T02:19:18;5.82;;;2.47;;
45103;SDS011;30865;51.288;4.572;2023-07-31T02:21:43;7.35;;;3.28;;
45103;SDS011;30865;51.288;4.572;2023-07-31T02:24:09;8.13;;;3.70;;
45103;SDS011;30865;51.288;4.572;2023-07-31T02:26:35;5.50;;;2.92;;
45103;SDS011;30865;51.288;4.572;2023-07-31T02:29:00;5.93;;;2.17;;
45103;SDS011;30865;51.288;4.572;2023-07-31T02:31:26;4.88;;;1.83;;
45103;SDS011;30865;51.288;4.572;2023-07-31T02:33:51;3.85;;;2.10;;
45103;SDS011;30865;51.288;4.572;2023-07-31T02:36:17;4.05;;;2.50;;
45103;SDS011;30865;51.288;4.572;2023-07-31T02:38:42;4.78;;;1.73;;
45103;SDS011;30865;51.288;4.572;2023-07-31T02:41:08;2.95;;;1.60;;
45103;SDS011;30865;51.288;4.572;2023-07-31T02:43:33;7.60;;;1.63;;
45103;SDS011;30865;51.288;4.572;2023-07-31T02:45:59;7.03;;;2.80;;
45103;SDS011;30865;51.288;4.572;2023-07-31T02:48:25;2.55;;;1.40;;
45103;SDS011;30865;51.288;4.572;2023-07-31T02:50:50;2.70;;;1.95;;
45103;SDS011;30865;51.288;4.572;2023-07-31T02:53:16;6.45;;;1.80;;
45103;SDS011;30865;51.288;4.572;2023-07-31T02:55:41;5.50;;;1.73;;
45103;SDS011;30865;51.288;4.572;2023-07-31T02:58:07;3.17;;;1.30;;
45103;SDS011;30865;51.288;4.572;2023-07-31T03:00:32;3.00;;;1.50;;
45103;SDS011;30865;51.288;4.572;2023-07-31T03:02:58;3.10;;;2.00;;
45103;SDS011;30865;51.288;4.572;2023-07-31T03:05:23;6.40;;;1.80;;
45103;SDS011;30865;51.288;4.572;2023-07-31T03:07:49;5.18;;;1.70;;
45103;SDS011;30865;51.288;4.572;2023-07-31T03:10:14;4.38;;;2.38;;
45103;SDS011;30865;51.288;4.572;2023-07-31T03:12:40;6.05;;;2.00;;
45103;SDS011;30865;51.288;4.572;2023-07-31T03:15:06;4.63;;;1.58;;
45103;SDS011;30865;51.288;4.572;2023-07-31T03:17:32;5.32;;;1.95;;
45103;SDS011;30865;51.288;4.572;2023-07-31T03:19:57;4.15;;;1.70;;
45103;SDS011;30865;51.288;4.572;2023-07-31T03:22:23;5.25;;;2.03;;
45103;SDS011;30865;51.288;4.572;2023-07-31T03:24:48;5.93;;;1.77;;
45103;SDS011;30865;51.288;4.572;2023-07-31T03:27:14;3.00;;;2.05;;
45103;SDS011;30865;51.288;4.572;2023-07-31T03:29:39;3.65;;;2.17;;
45103;SDS011;30865;51.288;4.572;2023-07-31T03:32:05;2.83;;;1.65;;
45103;SDS011;30865;51.288;4.572;2023-07-31T03:34:31;3.33;;;1.65;;
45103;SDS011;30865;51.288;4.572;2023-07-31T03:36:57;3.25;;;1.58;;
45103;SDS011;30865;51.288;4.572;2023-07-31T03:39:23;2.15;;;1.40;;
45103;SDS011;30865;51.288;4.572;2023-07-31T03:41:48;3.83;;;2.35;;
45103;SDS011;30865;51.288;4.572;2023-07-31T03:44:15;6.82;;;2.10;;
45103;SDS011;30865;51.288;4.572;2023-07-31T03:46:40;4.43;;;1.63;;
45103;SDS011;30865;51.288;4.572;2023-07-31T03:49:06;4.10;;;1.38;;
45103;SDS011;30865;51.288;4.572;2023-07-31T03:51:31;5.10;;;1.45;;
45103;SDS011;30865;51.288;4.572;2023-07-31T03:53:57;3.15;;;1.38;;
45103;SDS011;30865;51.288;4.572;2023-07-31T03:56:22;6.63;;;2.20;;
45103;SDS011;30865;51.288;4.572;2023-07-31T03:58:48;2.13;;;1.38;;
45103;SDS011;30865;51.288;4.572;2023-07-31T04:01:13;4.07;;;1.88;;
45103;SDS011;30865;51.288;4.572;2023-07-31T04:03:39;2.17;;;1.27;;
45103;SDS011;30865;51.288;4.572;2023-07-31T04:06:04;4.28;;;1.80;;
45103;SDS011;30865;51.288;4.572;2023-07-31T04:08:32;3.65;;;1.90;;
45103;SDS011;30865;51.288;4.572;2023-07-31T04:10:57;4.20;;;2.65;;
45103;SDS011;30865;51.288;4.572;2023-07-31T04:13:23;5.97;;;2.78;;
45103;SDS011;30865;51.288;4.572;2023-07-31T04:15:51;7.95;;;2.70;;
45103;SDS011;30865;51.288;4.572;2023-07-31T04:18:16;5.45;;;2.28;;
45103;SDS011;30865;51.288;4.572;2023-07-31T04:20:42;2.95;;;1.65;;
45103;SDS011;30865;51.288;4.572;2023-07-31T04:23:07;2.20;;;1.52;;
45103;SDS011;30865;51.288;4.572;2023-07-31T04:25:33;2.75;;;1.80;;
45103;SDS011;30865;51.288;4.572;2023-07-31T04:28:00;4.07;;;1.98;;
45103;SDS011;30865;51.288;4.572;2023-07-31T04:30:25;2.47;;;1.60;;
45103;SDS011;30865;51.288;4.572;2023-07-31T04:32:51;4.00;;;2.50;;
45103;SDS011;30865;51.288;4.572;2023-07-31T04:35:16;4.90;;;1.77;;
45103;SDS011;30865;51.288;4.572;2023-07-31T04:37:42;5.78;;;1.65;;
45103;SDS011;30865;51.288;4.572;2023-07-31T04:40:07;4.75;;;1.80;;
45103;SDS011;30865;51.288;4.572;2023-07-31T04:42:33;4.45;;;2.50;;
45103;SDS011;30865;51.288;4.572;2023-07-31T04:44:59;5.63;;;2.00;;
45103;SDS011;30865;51.288;4.572;2023-07-31T04:47:25;3.05;;;1.73;;
45103;SDS011;30865;51.288;4.572;2023-07-31T04:49:50;6.65;;;2.38;;
45103;SDS011;30865;51.288;4.572;2023-07-31T04:52:16;5.53;;;2.25;;
45103;SDS011;30865;51.288;4.572;2023-07-31T04:54:41;7.05;;;2.13;;
45103;SDS011;30865;51.288;4.572;2023-07-31T04:57:06;5.90;;;2.40;;
45103;SDS011;30865;51.288;4.572;2023-07-31T04:59:32;6.57;;;2.40;;
45103;SDS011;30865;51.288;4.572;2023-07-31T05:01:57;5.20;;;2.08;;
45103;SDS011;30865;51.288;4.572;2023-07-31T05:04:23;6.40;;;2.10;;
45103;SDS011;30865;51.288;4.572;2023-07-31T05:06:49;8.82;;;1.90;;
45103;SDS011;30865;51.288;4.572;2023-07-31T05:09:14;5.03;;;1.95;;
45103;SDS011;30865;51.288;4.572;2023-07-31T05:11:39;3.78;;;2.10;;
45103;SDS011;30865;51.288;4.572;2023-07-31T05:14:07;4.57;;;2.40;;
45103;SDS011;30865;51.288;4.572;2023-07-31T05:16:33;2.97;;;1.67;;
45103;SDS011;30865;51.288;4.572;2023-07-31T05:18:58;8.27;;;2.38;;
45103;SDS011;30865;51.288;4.572;2023-07-31T05:21:24;3.80;;;2.45;;
45103;SDS011;30865;51.288;4.572;2023-07-31T05:23:50;7.57;;;2.10;;
45103;SDS011;30865;51.288;4.572;2023-07-31T05:26:15;5.55;;;2.05;;
45103;SDS011;30865;51.288;4.572;2023-07-31T05:28:41;2.72;;;1.80;;
45103;SDS011;30865;51.288;4.572;2023-07-31T05:31:06;3.85;;;1.60;;
45103;SDS011;30865;51.288;4.572;2023-07-31T05:33:32;6.63;;;1.88;;
45103;SDS011;30865;51.288;4.572;2023-07-31T05:35:57;4.60;;;2.75;;
45103;SDS011;30865;51.288;4.572;2023-07-31T05:38:23;8.88;;;3.58;;
45103;SDS011;30865;51.288;4.572;2023-07-31T05:40:48;6.07;;;2.78;;
45103;SDS011;30865;51.288;4.572;2023-07-31T05:43:14;7.82;;;3.22;;
45103;SDS011;30865;51.288;4.572;2023-07-31T05:45:40;7.35;;;2.67;;
45103;SDS011;30865;51.288;4.572;2023-07-31T05:48:07;8.80;;;2.40;;
45103;SDS011;30865;51.288;4.572;2023-07-31T05:50:32;5.10;;;2.60;;
45103;SDS011;30865;51.288;4.572;2023-07-31T05:52:58;5.70;;;1.92;;
45103;SDS011;30865;51.288;4.572;2023-07-31T05:55:24;8.55;;;2.90;;
45103;SDS011;30865;51.288;4.572;2023-07-31T05:57:51;6.00;;;3.35;;
45103;SDS011;30865;51.288;4.572;2023-07-31T06:00:17;6.68;;;2.45;;
45103;SDS011;30865;51.288;4.572;2023-07-31T06:02:43;5.40;;;2.15;;
45103;SDS011;30865;51.288;4.572;2023-07-31T06:05:08;4.25;;;2.28;;
45103;SDS011;30865;51.288;4.572;2023-07-31T06:07:34;5.78;;;2.67;;
45103;SDS011;30865;51.288;4.572;2023-07-31T06:09:59;7.93;;;2.55;;
45103;SDS011;30865;51.288;4.572;2023-07-31T06:12:34;4.68;;;2.20;;
45103;SDS011;30865;51.288;4.572;2023-07-31T06:15:00;4.28;;;1.63;;
45103;SDS011;30865;51.288;4.572;2023-07-31T06:17:27;6.05;;;2.33;;
45103;SDS011;30865;51.288;4.572;2023-07-31T06:19:52;5.25;;;2.20;;
45103;SDS011;30865;51.288;4.572;2023-07-31T06:22:18;3.42;;;2.00;;
45103;SDS011;30865;51.288;4.572;2023-07-31T06:24:44;4.15;;;1.55;;
45103;SDS011;30865;51.288;4.572;2023-07-31T06:27:10;7.82;;;2.00;;
45103;SDS011;30865;51.288;4.572;2023-07-31T06:29:35;4.43;;;1.65;;
45103;SDS011;30865;51.288;4.572;2023-07-31T06:32:01;4.82;;;1.42;;
45103;SDS011;30865;51.288;4.572;2023-07-31T06:34:27;5.18;;;1.70;;
45103;SDS011;30865;51.288;4.572;2023-07-31T06:36:52;2.90;;;1.27;;
45103;SDS011;30865;51.288;4.572;2023-07-31T06:39:17;4.60;;;2.00;;
45103;SDS011;30865;51.288;4.572;2023-07-31T06:41:43;2.90;;;1.23;;
45103;SDS011;30865;51.288;4.572;2023-07-31T06:44:09;4.75;;;1.10;;
45103;SDS011;30865;51.288;4.572;2023-07-31T06:46:37;4.10;;;1.23;;
45103;SDS011;30865;51.288;4.572;2023-07-31T06:49:03;2.13;;;1.02;;
45103;SDS011;30865;51.288;4.572;2023-07-31T06:51:29;3.38;;;1.30;;
45103;SDS011;30865;51.288;4.572;2023-07-31T06:53:56;11.40;;;1.20;;
45103;SDS011;30865;51.288;4.572;2023-07-31T06:56:22;3.42;;;1.00;;
45103;SDS011;30865;51.288;4.572;2023-07-31T06:58:47;2.03;;;1.48;;
45103;SDS011;30865;51.288;4.572;2023-07-31T07:01:13;5.82;;;1.50;;
45103;SDS011;30865;51.288;4.572;2023-07-31T07:03:38;1.55;;;1.23;;
45103;SDS011;30865;51.288;4.572;2023-07-31T07:06:04;5.43;;;1.20;;
45103;SDS011;30865;51.288;4.572;2023-07-31T07:08:30;4.20;;;1.25;;
45103;SDS011;30865;51.288;4.572;2023-07-31T07:10:55;2.58;;;1.20;;
45103;SDS011;30865;51.288;4.572;2023-07-31T07:13:21;1.67;;;1.15;;
45103;SDS011;30865;51.288;4.572;2023-07-31T07:15:50;3.72;;;1.63;;
45103;SDS011;30865;51.288;4.572;2023-07-31T07:18:16;1.13;;;1.00;;
45103;SDS011;30865;51.288;4.572;2023-07-31T07:20:51;1.33;;;1.23;;
45103;SDS011;30865;51.288;4.572;2023-07-31T07:23:17;1.80;;;0.98;;
45103;SDS011;30865;51.288;4.572;2023-07-31T07:25:44;2.03;;;0.80;;
45103;SDS011;30865;51.288;4.572;2023-07-31T07:28:11;2.10;;;1.02;;
45103;SDS011;30865;51.288;4.572;2023-07-31T07:30:36;1.38;;;1.00;;
45103;SDS011;30865;51.288;4.572;2023-07-31T07:33:02;2.88;;;1.55;;
45103;SDS011;30865;51.288;4.572;2023-07-31T07:35:27;1.83;;;1.23;;
45103;SDS011;30865;51.288;4.572;2023-07-31T07:37:53;6.47;;;1.40;;
45103;SDS011;30865;51.288;4.572;2023-07-31T07:40:19;6.10;;;2.25;;
45103;SDS011;30865;51.288;4.572;2023-07-31T07:42:45;2.75;;;1.30;;
45103;SDS011;30865;51.288;4.572;2023-07-31T07:45:11;4.82;;;1.25;;
45103;SDS011;30865;51.288;4.572;2023-07-31T07:47:37;3.90;;;1.42;;
45103;SDS011;30865;51.288;4.572;2023-07-31T07:50:04;2.90;;;1.30;;
45103;SDS011;30865;51.288;4.572;2023-07-31T07:52:30;4.65;;;1.27;;
45103;SDS011;30865;51.288;4.572;2023-07-31T07:54:55;3.22;;;1.95;;
45103;SDS011;30865;51.288;4.572;2023-07-31T07:57:21;3.30;;;1.10;;
45103;SDS011;30865;51.288;4.572;2023-07-31T07:59:46;3.03;;;1.25;;
45103;SDS011;30865;51.288;4.572;2023-07-31T08:02:12;4.43;;;1.80;;
45103;SDS011;30865;51.288;4.572;2023-07-31T08:04:37;4.95;;;1.23;;
45103;SDS011;30865;51.288;4.572;2023-07-31T08:07:03;6.00;;;1.25;;
45103;SDS011;30865;51.288;4.572;2023-07-31T08:09:28;4.60;;;1.50;;
45103;SDS011;30865;51.288;4.572;2023-07-31T08:11:54;4.38;;;1.52;;
45103;SDS011;30865;51.288;4.572;2023-07-31T08:14:19;1.60;;;0.98;;
45103;SDS011;30865;51.288;4.572;2023-07-31T08:16:45;3.75;;;1.35;;
45103;SDS011;30865;51.288;4.572;2023-07-31T08:19:10;7.10;;;2.25;;
45103;SDS011;30865;51.288;4.572;2023-07-31T08:21:36;3.58;;;1.17;;
45103;SDS011;30865;51.288;4.572;2023-07-31T08:24:01;4.95;;;1.55;;
45103;SDS011;30865;51.288;4.572;2023-07-31T08:26:27;12.20;;;1.23;;
45103;SDS011;30865;51.288;4.572;2023-07-31T08:28:52;2.25;;;1.08;;
45103;SDS011;30865;51.288;4.572;2023-07-31T08:31:18;4.57;;;1.50;;
45103;SDS011;30865;51.288;4.572;2023-07-31T08:33:44;5.40;;;1.20;;
45103;SDS011;30865;51.288;4.572;2023-07-31T08:36:09;2.22;;;1.27;;
45103;SDS011;30865;51.288;4.572;2023-07-31T08:38:35;6.32;;;1.58;;
45103;SDS011;30865;51.288;4.572;2023-07-31T08:41:02;3.72;;;1.35;;
45103;SDS011;30865;51.288;4.572;2023-07-31T08:43:29;3.13;;;1.13;;
45103;SDS011;30865;51.288;4.572;2023-07-31T08:45:55;1.83;;;1.10;;
45103;SDS011;30865;51.288;4.572;2023-07-31T08:48:22;2.95;;;1.10;;
45103;SDS011;30865;51.288;4.572;2023-07-31T08:50:49;2.88;;;1.48;;
45103;SDS011;30865;51.288;4.572;2023-07-31T08:53:15;4.72;;;1.83;;
45103;SDS011;30865;51.288;4.572;2023-07-31T08:55:41;2.90;;;1.00;;
45103;SDS011;30865;51.288;4.572;2023-07-31T08:58:07;2.70;;;1.40;;
45103;SDS011;30865;51.288;4.572;2023-07-31T09:00:34;7.13;;;1.67;;
45103;SDS011;30865;51.288;4.572;2023-07-31T09:03:08;5.78;;;1.50;;
45103;SDS011;30865;51.288;4.572;2023-07-31T09:05:38;3.05;;;1.75;;
45103;SDS011;30865;51.288;4.572;2023-07-31T09:08:06;2.10;;;1.10;;
45103;SDS011;30865;51.288;4.572;2023-07-31T09:10:34;4.72;;;1.25;;
45103;SDS011;30865;51.288;4.572;2023-07-31T09:13:00;2.20;;;1.42;;
45103;SDS011;30865;51.288;4.572;2023-07-31T09:15:27;4.35;;;1.70;;
45103;SDS011;30865;51.288;4.572;2023-07-31T09:18:00;3.38;;;1.30;;
45103;SDS011;30865;51.288;4.572;2023-07-31T09:20:26;5.93;;;2.20;;
45103;SDS011;30865;51.288;4.572;2023-07-31T09:22:52;5.03;;;1.70;;
45103;SDS011;30865;51.288;4.572;2023-07-31T09:25:23;3.88;;;1.50;;
45103;SDS011;30865;51.288;4.572;2023-07-31T09:27:52;4.93;;;2.00;;
45103;SDS011;30865;51.288;4.572;2023-07-31T09:30:20;4.38;;;1.75;;
45103;SDS011;30865;51.288;4.572;2023-07-31T09:32:46;3.72;;;1.52;;
45103;SDS011;30865;51.288;4.572;2023-07-31T09:35:28;2.05;;;1.23;;
45103;SDS011;30865;51.288;4.572;2023-07-31T09:37:55;2.47;;;1.23;;
45103;SDS011;30865;51.288;4.572;2023-07-31T09:40:32;5.05;;;1.23;;
45103;SDS011;30865;51.288;4.572;2023-07-31T09:42:59;2.65;;;1.58;;
45103;SDS011;30865;51.288;4.572;2023-07-31T09:45:28;5.05;;;1.45;;
45103;SDS011;30865;51.288;4.572;2023-07-31T09:47:54;3.90;;;1.70;;
45103;SDS011;30865;51.288;4.572;2023-07-31T09:50:21;3.25;;;1.65;;
45103;SDS011;30865;51.288;4.572;2023-07-31T09:52:48;3.13;;;1.23;;
45103;SDS011;30865;51.288;4.572;2023-07-31T09:55:14;3.78;;;1.85;;
45103;SDS011;30865;51.288;4.572;2023-07-31T09:57:41;3.50;;;1.55;;
45103;SDS011;30865;51.288;4.572;2023-07-31T10:00:11;3.83;;;1.38;;
45103;SDS011;30865;51.288;4.572;2023-07-31T10:02:38;5.80;;;1.77;;
45103;SDS011;30865;51.288;4.572;2023-07-31T10:05:04;2.63;;;1.40;;
45103;SDS011;30865;51.288;4.572;2023-07-31T10:07:31;4.25;;;2.03;;
45103;SDS011;30865;51.288;4.572;2023-07-31T10:10:03;3.47;;;1.67;;
45103;SDS011;30865;51.288;4.572;2023-07-31T10:12:31;2.85;;;1.30;;
45103;SDS011;30865;51.288;4.572;2023-07-31T10:14:59;3.67;;;1.65;;
45103;SDS011;30865;51.288;4.572;2023-07-31T10:17:25;1.75;;;1.15;;
45103;SDS011;30865;51.288;4.572;2023-07-31T10:19:51;4.00;;;1.25;;
45103;SDS011;30865;51.288;4.572;2023-07-31T10:22:19;3.67;;;1.83;;
45103;SDS011;30865;51.288;4.572;2023-07-31T10:24:46;2.78;;;1.50;;
45103;SDS011;30865;51.288;4.572;2023-07-31T10:27:11;3.85;;;1.23;;
45103;SDS011;30865;51.288;4.572;2023-07-31T10:29:38;7.18;;;1.90;;
45103;SDS011;30865;51.288;4.572;2023-07-31T10:32:04;4.50;;;1.48;;
45103;SDS011;30865;51.288;4.572;2023-07-31T10:34:35;2.45;;;1.60;;
45103;SDS011;30865;51.288;4.572;2023-07-31T10:37:20;7.10;;;1.60;;
45103;SDS011;30865;51.288;4.572;2023-07-31T10:40:03;1.35;;;1.25;;
45103;SDS011;30865;51.288;4.572;2023-07-31T10:42:34;3.00;;;1.42;;
45103;SDS011;30865;51.288;4.572;2023-07-31T10:45:05;4.20;;;1.52;;
45103;SDS011;30865;51.288;4.572;2023-07-31T10:50:13;5.85;;;1.52;;
45103;SDS011;30865;51.288;4.572;2023-07-31T10:52:44;5.53;;;2.13;;
45103;SDS011;30865;51.288;4.572;2023-07-31T10:55:16;3.38;;;1.55;;
45103;SDS011;30865;51.288;4.572;2023-07-31T10:58:10;2.75;;;1.58;;
45103;SDS011;30865;51.288;4.572;2023-07-31T11:00:39;4.40;;;1.58;;
45103;SDS011;30865;51.288;4.572;2023-07-31T11:03:07;7.13;;;1.65;;
45103;SDS011;30865;51.288;4.572;2023-07-31T11:05:47;2.20;;;1.10;;
45103;SDS011;30865;51.288;4.572;2023-07-31T11:08:24;3.85;;;1.38;;
45103;SDS011;30865;51.288;4.572;2023-07-31T11:13:41;6.30;;;1.58;;
45103;SDS011;30865;51.288;4.572;2023-07-31T11:16:12;6.45;;;2.22;;
45103;SDS011;30865;51.288;4.572;2023-07-31T11:18:40;6.30;;;1.35;;
45103;SDS011;30865;51.288;4.572;2023-07-31T11:21:06;2.45;;;1.38;;
45103;SDS011;30865;51.288;4.572;2023-07-31T11:23:32;7.20;;;1.80;;
45103;SDS011;30865;51.288;4.572;2023-07-31T11:26:01;3.70;;;1.30;;
45103;SDS011;30865;51.288;4.572;2023-07-31T11:28:30;2.05;;;1.15;;
45103;SDS011;30865;51.288;4.572;2023-07-31T11:31:00;4.10;;;1.60;;
45103;SDS011;30865;51.288;4.572;2023-07-31T11:33:26;2.58;;;1.77;;
45103;SDS011;30865;51.288;4.572;2023-07-31T11:35:52;4.28;;;1.60;;
45103;SDS011;30865;51.288;4.572;2023-07-31T11:38:31;6.10;;;1.92;;
45103;SDS011;30865;51.288;4.572;2023-07-31T11:41:01;3.75;;;1.95;;
45103;SDS011;30865;51.288;4.572;2023-07-31T11:43:28;2.78;;;1.60;;
45103;SDS011;30865;51.288;4.572;2023-07-31T11:45:56;3.28;;;1.50;;
45103;SDS011;30865;51.288;4.572;2023-07-31T11:48:32;3.15;;;1.50;;
45103;SDS011;30865;51.288;4.572;2023-07-31T11:51:02;4.53;;;1.98;;
45103;SDS011;30865;51.288;4.572;2023-07-31T11:56:19;3.63;;;1.65;;
45103;SDS011;30865;51.288;4.572;2023-07-31T11:58:46;2.70;;;1.50;;
45103;SDS011;30865;51.288;4.572;2023-07-31T12:01:13;2.88;;;1.60;;
45103;SDS011;30865;51.288;4.572;2023-07-31T12:03:40;3.13;;;1.20;;
45103;SDS011;30865;51.288;4.572;2023-07-31T12:06:07;4.45;;;1.60;;
45103;SDS011;30865;51.288;4.572;2023-07-31T12:08:33;7.50;;;1.60;;
45103;SDS011;30865;51.288;4.572;2023-07-31T12:11:05;5.43;;;1.50;;
45103;SDS011;30865;51.288;4.572;2023-07-31T12:13:34;3.83;;;1.80;;
45103;SDS011;30865;51.288;4.572;2023-07-31T12:16:00;2.38;;;1.75;;
45103;SDS011;30865;51.288;4.572;2023-07-31T12:18:29;4.55;;;1.27;;
45103;SDS011;30865;51.288;4.572;2023-07-31T12:21:05;6.18;;;1.50;;
45103;SDS011;30865;51.288;4.572;2023-07-31T12:23:31;2.88;;;1.42;;
45103;SDS011;30865;51.288;4.572;2023-07-31T12:26:02;9.25;;;2.13;;
45103;SDS011;30865;51.288;4.572;2023-07-31T12:28:51;4.97;;;1.63;;
45103;SDS011;30865;51.288;4.572;2023-07-31T12:31:22;3.50;;;1.52;;
45103;SDS011;30865;51.288;4.572;2023-07-31T12:33:52;6.43;;;2.13;;
45103;SDS011;30865;51.288;4.572;2023-07-31T12:36:22;3.90;;;1.70;;
45103;SDS011;30865;51.288;4.572;2023-07-31T12:38:49;5.15;;;1.88;;
45103;SDS011;30865;51.288;4.572;2023-07-31T12:41:15;6.40;;;2.60;;
45103;SDS011;30865;51.288;4.572;2023-07-31T12:43:41;4.95;;;1.42;;
45103;SDS011;30865;51.288;4.572;2023-07-31T12:46:08;6.50;;;2.30;;
45103;SDS011;30865;51.288;4.572;2023-07-31T12:48:35;4.30;;;1.88;;
45103;SDS011;30865;51.288;4.572;2023-07-31T12:51:01;4.47;;;1.55;;
45103;SDS011;30865;51.288;4.572;2023-07-31T12:53:27;3.22;;;1.52;;
45103;SDS011;30865;51.288;4.572;2023-07-31T12:55:54;3.80;;;1.73;;
45103;SDS011;30865;51.288;4.572;2023-07-31T12:58:20;5.43;;;1.38;;
45103;SDS011;30865;51.288;4.572;2023-07-31T13:00:46;5.38;;;1.73;;
45103;SDS011;30865;51.288;4.572;2023-07-31T13:03:11;2.30;;;1.35;;
45103;SDS011;30865;51.288;4.572;2023-07-31T13:05:37;4.03;;;1.70;;
45103;SDS011;30865;51.288;4.572;2023-07-31T13:08:02;2.72;;;1.27;;
45103;SDS011;30865;51.288;4.572;2023-07-31T13:10:28;4.53;;;2.40;;
45103;SDS011;30865;51.288;4.572;2023-07-31T13:12:54;3.53;;;1.50;;
45103;SDS011;30865;51.288;4.572;2023-07-31T13:15:20;4.00;;;1.50;;
45103;SDS011;30865;51.288;4.572;2023-07-31T13:17:46;4.28;;;1.60;;
45103;SDS011;30865;51.288;4.572;2023-07-31T13:20:12;5.25;;;1.75;;
45103;SDS011;30865;51.288;4.572;2023-07-31T13:22:38;5.55;;;1.40;;
45103;SDS011;30865;51.288;4.572;2023-07-31T13:25:03;5.53;;;1.63;;
45103;SDS011;30865;51.288;4.572;2023-07-31T13:27:30;2.75;;;1.70;;
45103;SDS011;30865;51.288;4.572;2023-07-31T13:29:55;3.28;;;1.63;;
45103;SDS011;30865;51.288;4.572;2023-07-31T13:32:21;3.30;;;1.58;;
45103;SDS011;30865;51.288;4.572;2023-07-31T13:34:47;2.70;;;1.33;;
45103;SDS011;30865;51.288;4.572;2023-07-31T13:37:13;3.72;;;1.48;;
45103;SDS011;30865;51.288;4.572;2023-07-31T13:39:39;4.25;;;1.42;;
45103;SDS011;30865;51.288;4.572;2023-07-31T13:42:05;4.00;;;1.58;;
45103;SDS011;30865;51.288;4.572;2023-07-31T13:44:33;2.05;;;1.30;;
45103;SDS011;30865;51.288;4.572;2023-07-31T13:47:02;3.13;;;1.35;;
45103;SDS011;30865;51.288;4.572;2023-07-31T13:49:28;5.88;;;1.98;;
45103;SDS011;30865;51.288;4.572;2023-07-31T13:51:54;7.53;;;1.92;;
45103;SDS011;30865;51.288;4.572;2023-07-31T13:54:20;4.03;;;1.70;;
45103;SDS011;30865;51.288;4.572;2023-07-31T13:56:46;2.67;;;1.40;;
45103;SDS011;30865;51.288;4.572;2023-07-31T13:59:12;2.28;;;1.60;;
45103;SDS011;30865;51.288;4.572;2023-07-31T14:01:39;3.47;;;2.00;;
45103;SDS011;30865;51.288;4.572;2023-07-31T14:04:05;3.22;;;1.60;;
45103;SDS011;30865;51.288;4.572;2023-07-31T14:06:31;5.93;;;1.73;;
45103;SDS011;30865;51.288;4.572;2023-07-31T14:08:56;3.20;;;1.70;;
45103;SDS011;30865;51.288;4.572;2023-07-31T14:11:22;3.95;;;1.63;;
45103;SDS011;30865;51.288;4.572;2023-07-31T14:13:48;4.63;;;2.08;;
45103;SDS011;30865;51.288;4.572;2023-07-31T14:16:14;3.95;;;2.25;;
45103;SDS011;30865;51.288;4.572;2023-07-31T14:18:41;3.65;;;1.65;;
45103;SDS011;30865;51.288;4.572;2023-07-31T14:21:06;6.72;;;2.55;;
45103;SDS011;30865;51.288;4.572;2023-07-31T14:23:32;4.90;;;2.05;;
45103;SDS011;30865;51.288;4.572;2023-07-31T14:25:58;4.03;;;1.80;;
45103;SDS011;30865;51.288;4.572;2023-07-31T14:28:24;3.55;;;1.63;;
45103;SDS011;30865;51.288;4.572;2023-07-31T14:30:49;5.70;;;1.60;;
45103;SDS011;30865;51.288;4.572;2023-07-31T14:33:15;5.85;;;1.65;;
45103;SDS011;30865;51.288;4.572;2023-07-31T14:35:40;4.55;;;1.60;;
45103;SDS011;30865;51.288;4.572;2023-07-31T14:38:06;2.00;;;1.55;;
45103;SDS011;30865;51.288;4.572;2023-07-31T14:40:31;6.22;;;1.63;;
45103;SDS011;30865;51.288;4.572;2023-07-31T14:42:57;4.47;;;1.80;;
45103;SDS011;30865;51.288;4.572;2023-07-31T14:45:22;3.15;;;1.55;;
45103;SDS011;30865;51.288;4.572;2023-07-31T14:47:48;4.28;;;1.95;;
45103;SDS011;30865;51.288;4.572;2023-07-31T14:50:13;4.57;;;2.42;;
45103;SDS011;30865;51.288;4.572;2023-07-31T14:52:39;2.47;;;1.33;;
45103;SDS011;30865;51.288;4.572;2023-07-31T14:55:05;2.75;;;1.40;;
45103;SDS011;30865;51.288;4.572;2023-07-31T14:57:30;4.55;;;1.60;;